Time;durP1;ratioP1;P1;durP2;ratioP2;P2;SDS_P1;SDS_P2;PMS_P1;PMS_P2;Temp;Humidity;BMP_temperature;BMP_pressure;BME280_temperature;BME280_humidity;BME280_pressure;Samples;Min_cycle;Max_cycle;Signal;HPM_P1;HPM_P2
2021/04/07 00:01:43;;;;;;;2.45;0.60;;;2.20;67.50;;;;;;4974465;28;20361;-75
2021/04/07 00:04:09;;;;;;;3.30;0.90;;;2.20;67.40;;;;;;4956817;28;20043;-76
2021/04/07 00:06:38;;;;;;;6.10;1.13;;;2.20;66.70;;;;;;4957330;28;20389;-75
2021/04/07 00:09:04;;;;;;;3.15;0.95;;;2.20;66.80;;;;;;4983764;28;20042;-75
2021/04/07 00:11:31;;;;;;;5.50;1.10;;;2.20;67.00;;;;;;4978709;28;20035;-76
2021/04/07 00:13:58;;;;;;;6.18;1.27;;;2.20;66.60;;;;;;4974366;28;20365;-75
2021/04/07 00:16:25;;;;;;;1.90;0.65;;;2.20;66.70;;;;;;4974134;28;20115;-76
2021/04/07 00:18:51;;;;;;;1.40;0.60;;;2.10;65.80;;;;;;4971426;28;20472;-76
2021/04/07 00:21:18;;;;;;;3.00;1.73;;;2.20;65.20;;;;;;4955840;28;20051;-76
2021/04/07 00:23:44;;;;;;;4.70;1.30;;;2.20;65.20;;;;;;4973565;28;20034;-75
2021/04/07 00:26:11;;;;;;;4.30;0.88;;;2.10;66.30;;;;;;4973643;28;20031;-76
2021/04/07 00:28:37;;;;;;;4.05;1.25;;;2.20;65.60;;;;;;4957169;28;20038;-76
2021/04/07 00:31:03;;;;;;;3.60;0.80;;;2.20;65.10;;;;;;4973236;28;20042;-77
2021/04/07 00:33:29;;;;;;;2.08;1.10;;;2.20;64.80;;;;;;4973907;28;20047;-76
2021/04/07 00:35:56;;;;;;;3.70;0.80;;;2.20;63.70;;;;;;4971532;28;20424;-76
2021/04/07 00:38:22;;;;;;;3.20;0.73;;;2.20;63.40;;;;;;4974040;28;20046;-77
2021/04/07 00:40:48;;;;;;;2.42;0.98;;;2.20;62.90;;;;;;4974443;28;20022;-76
2021/04/07 00:43:15;;;;;;;5.25;1.05;;;2.20;63.80;;;;;;4971124;28;20051;-77
2021/04/07 00:45:41;;;;;;;5.57;1.00;;;2.20;63.30;;;;;;4974453;28;20037;-76
2021/04/07 00:48:08;;;;;;;5.78;1.52;;;2.10;63.20;;;;;;4973612;28;20437;-76
2021/04/07 00:50:34;;;;;;;2.05;0.95;;;2.10;63.20;;;;;;4973351;28;20054;-76
2021/04/07 00:53:02;;;;;;;4.70;1.58;;;2.10;64.00;;;;;;4972716;28;20051;-76
2021/04/07 00:55:34;;;;;;;5.93;1.52;;;2.10;63.40;;;;;;4973848;28;20484;-76
2021/04/07 00:58:03;;;;;;;3.58;1.75;;;2.10;64.10;;;;;;4973947;28;20094;-76
2021/04/07 01:00:29;;;;;;;3.80;1.17;;;2.10;63.20;;;;;;4957331;28;20047;-77
2021/04/07 01:03:00;;;;;;;4.85;1.17;;;2.10;63.30;;;;;;4956837;28;20043;-76
2021/04/07 01:05:27;;;;;;;4.70;1.02;;;2.10;63.60;;;;;;4981947;28;20050;-76
2021/04/07 01:07:57;;;;;;;3.22;0.90;;;2.10;63.70;;;;;;4976011;28;20042;-77
2021/04/07 01:10:24;;;;;;;2.75;0.85;;;2.10;64.50;;;;;;4981906;28;20034;-76
2021/04/07 01:12:52;;;;;;;3.53;1.23;;;2.10;63.70;;;;;;4987996;28;20038;-76
2021/04/07 01:15:18;;;;;;;2.75;0.85;;;2.10;64.00;;;;;;4978047;28;20035;-77
2021/04/07 01:17:45;;;;;;;4.20;1.50;;;2.00;64.20;;;;;;4977557;28;20471;-76
2021/04/07 01:20:14;;;;;;;5.28;1.40;;;2.10;64.70;;;;;;4978596;28;20042;-76
2021/04/07 01:22:41;;;;;;;2.90;0.82;;;2.00;64.80;;;;;;4956439;28;20061;-75
2021/04/07 01:25:09;;;;;;;5.85;1.20;;;2.00;65.00;;;;;;4972526;28;20042;-77
2021/04/07 01:27:37;;;;;;;4.68;1.05;;;2.00;64.90;;;;;;4972889;28;20189;-77
2021/04/07 01:30:15;;;;;;;4.10;0.90;;;2.00;65.00;;;;;;4972650;28;20050;-77
2021/04/07 01:32:42;;;;;;;2.67;0.95;;;2.00;65.30;;;;;;4972960;28;20046;-77
2021/04/07 01:35:10;;;;;;;1.77;0.63;;;2.00;66.40;;;;;;4973103;28;20031;-77
2021/04/07 01:37:37;;;;;;;3.33;1.00;;;2.00;65.60;;;;;;4976013;28;20460;-77
2021/04/07 01:40:07;;;;;;;7.13;1.90;;;2.00;66.30;;;;;;4976934;28;20037;-76
2021/04/07 01:42:35;;;;;;;4.40;1.08;;;2.00;65.90;;;;;;4991802;28;20054;-76
2021/04/07 01:45:06;;;;;;;5.07;1.20;;;2.00;65.50;;;;;;4976821;28;20043;-77
2021/04/07 01:47:35;;;;;;;;;;;2.00;66.00;;;;;;4977806;28;20038;-77
2021/04/07 01:50:04;;;;;;;4.90;1.23;;;2.00;66.20;;;;;;4993450;28;19929;-77
2021/04/07 01:52:30;;;;;;;4.65;0.90;;;2.00;65.90;;;;;;4976888;28;20475;-75
2021/04/07 01:54:57;;;;;;;8.27;1.92;;;2.00;66.30;;;;;;4977036;28;20111;-76
2021/04/07 01:57:23;;;;;;;2.72;1.13;;;2.00;65.80;;;;;;4982041;28;20026;-75
2021/04/07 01:59:50;;;;;;;5.55;1.77;;;2.00;66.20;;;;;;4988657;28;20030;-76
2021/04/07 02:02:16;;;;;;;2.78;0.80;;;2.00;66.10;;;;;;4990934;28;20030;-76
2021/04/07 02:04:43;;;;;;;6.38;1.05;;;2.00;66.20;;;;;;4983649;28;20065;-76
2021/04/07 02:07:14;;;;;;;5.35;1.88;;;2.00;66.40;;;;;;4973185;28;20054;-77
2021/04/07 02:09:41;;;;;;;;;;;2.00;66.60;;;;;;4977038;28;20136;-76
2021/04/07 02:12:07;;;;;;;3.65;1.25;;;2.00;66.60;;;;;;4976106;28;19910;-75
2021/04/07 02:14:34;;;;;;;3.25;0.75;;;2.00;66.80;;;;;;4976155;28;20035;-76
2021/04/07 02:17:02;;;;;;;3.15;1.27;;;1.90;67.20;;;;;;4975883;28;20051;-76
2021/04/07 02:19:31;;;;;;;4.70;1.75;;;2.00;67.60;;;;;;4975903;28;20046;-77
2021/04/07 02:22:20;;;;;;;2.97;1.00;;;1.90;67.20;;;;;;4989119;28;20042;-76
2021/04/07 02:24:48;;;;;;;2.47;1.30;;;1.90;68.00;;;;;;4975320;28;20054;-76
2021/04/07 02:27:22;;;;;;;2.85;1.02;;;1.90;67.50;;;;;;4975528;28;20038;-76
2021/04/07 02:29:51;;;;;;;1.75;0.93;;;1.90;67.40;;;;;;4976083;28;20047;-76
2021/04/07 02:32:17;;;;;;;3.33;1.10;;;1.90;67.30;;;;;;4969734;28;20046;-76
2021/04/07 02:34:44;;;;;;;4.13;1.30;;;1.90;67.30;;;;;;4980123;28;20041;-75
2021/04/07 02:37:12;;;;;;;4.85;1.15;;;1.90;68.00;;;;;;4980105;28;20385;-76
2021/04/07 02:39:39;;;;;;;6.53;1.85;;;1.90;67.70;;;;;;4964098;28;20491;-76
2021/04/07 02:42:06;;;;;;;4.18;1.33;;;1.90;68.00;;;;;;4975620;28;20047;-76
2021/04/07 02:44:32;;;;;;;3.97;1.23;;;1.90;67.50;;;;;;4975909;28;20496;-76
2021/04/07 02:46:59;;;;;;;2.65;0.95;;;1.90;67.90;;;;;;4976214;28;20479;-77
2021/04/07 02:49:25;;;;;;;3.33;1.23;;;1.90;68.10;;;;;;4975498;28;20357;-76
2021/04/07 02:51:51;;;;;;;2.53;1.27;;;1.90;68.10;;;;;;4976254;28;20030;-76
2021/04/07 02:54:19;;;;;;;6.82;1.17;;;1.90;67.80;;;;;;4958033;28;20046;-76
2021/04/07 02:56:45;;;;;;;1.90;0.90;;;1.90;67.90;;;;;;4975185;28;20043;-76
2021/04/07 02:59:11;;;;;;;2.58;1.05;;;1.90;68.20;;;;;;4976141;28;20038;-76
2021/04/07 03:01:37;;;;;;;3.25;1.13;;;1.90;68.60;;;;;;4976349;28;20050;-76
2021/04/07 03:04:04;;;;;;;5.45;1.70;;;1.80;68.70;;;;;;4981666;28;20043;-76
2021/04/07 03:06:30;;;;;;;2.63;1.27;;;1.80;69.30;;;;;;4974973;28;20039;-77
2021/04/07 03:08:56;;;;;;;5.85;2.67;;;1.80;69.40;;;;;;4975341;28;20030;-77
2021/04/07 03:11:23;;;;;;;3.00;1.33;;;1.80;69.50;;;;;;4975065;28;20045;-77
2021/04/07 03:13:49;;;;;;;3.40;1.38;;;1.80;69.00;;;;;;4991655;28;20415;-77
2021/04/07 03:16:16;;;;;;;3.03;1.30;;;1.80;69.60;;;;;;4980174;28;20055;-77
2021/04/07 03:18:42;;;;;;;5.30;1.92;;;1.80;69.90;;;;;;4983113;28;20027;-75
2021/04/07 03:21:08;;;;;;;5.70;1.35;;;1.80;70.10;;;;;;4976384;28;20051;-76
2021/04/07 03:23:34;;;;;;;5.50;2.08;;;1.80;69.70;;;;;;4968406;28;20054;-76
2021/04/07 03:26:01;;;;;;;4.85;1.23;;;1.80;70.10;;;;;;4956977;28;20069;-75
2021/04/07 03:28:27;;;;;;;2.72;1.20;;;1.70;70.00;;;;;;4974117;28;20047;-76
2021/04/07 03:30:53;;;;;;;4.20;1.23;;;1.70;71.00;;;;;;4975279;28;20042;-76
2021/04/07 03:33:24;;;;;;;4.18;1.15;;;1.70;70.70;;;;;;4972947;28;20049;-75
2021/04/07 03:35:51;;;;;;;4.32;1.33;;;1.80;70.10;;;;;;4975238;28;20039;-75
2021/04/07 03:38:18;;;;;;;5.63;2.05;;;1.80;70.20;;;;;;4977726;28;20102;-75
2021/04/07 03:40:45;;;;;;;3.10;1.00;;;1.70;70.40;;;;;;4980146;28;20042;-76
2021/04/07 03:43:13;;;;;;;7.30;1.85;;;1.70;69.60;;;;;;4980785;28;20057;-76
2021/04/07 03:45:44;;;;;;;6.63;1.38;;;1.80;70.00;;;;;;4990313;28;20050;-76
2021/04/07 03:48:11;;;;;;;4.47;1.83;;;1.80;69.50;;;;;;4974439;28;20034;-75
2021/04/07 03:50:39;;;;;;;4.03;1.52;;;1.80;69.70;;;;;;4974842;28;20038;-76
2021/04/07 03:53:06;;;;;;;4.63;1.00;;;1.80;69.20;;;;;;4974330;28;20042;-76
2021/04/07 03:55:32;;;;;;;2.80;0.80;;;1.80;69.40;;;;;;4985122;28;20062;-76
2021/04/07 03:57:59;;;;;;;2.22;1.20;;;1.80;70.30;;;;;;4958002;28;20042;-76
2021/04/07 04:00:26;;;;;;;4.95;1.33;;;1.80;70.60;;;;;;4984983;28;20030;-76
2021/04/07 04:02:52;;;;;;;4.57;1.50;;;1.70;70.30;;;;;;4975517;28;20030;-76
2021/04/07 04:05:19;;;;;;;4.53;1.60;;;1.70;70.50;;;;;;4987809;28;20491;-76
2021/04/07 04:07:45;;;;;;;7.25;1.30;;;1.70;69.30;;;;;;4980684;28;20050;-76
2021/04/07 04:10:12;;;;;;;6.53;1.83;;;1.70;69.60;;;;;;4986370;28;20057;-76
2021/04/07 04:12:39;;;;;;;5.60;1.50;;;1.70;69.40;;;;;;4974506;28;20039;-76
2021/04/07 04:15:09;;;;;;;4.22;1.50;;;1.70;69.80;;;;;;4976285;28;20038;-76
2021/04/07 04:17:39;;;;;;;5.22;1.27;;;1.70;69.40;;;;;;4990447;28;20391;-76
2021/04/07 04:20:06;;;;;;;5.32;1.25;;;1.70;69.50;;;;;;4956754;28;20034;-76
2021/04/07 04:22:33;;;;;;;4.15;1.20;;;1.70;70.20;;;;;;4973437;28;20051;-76
2021/04/07 04:25:00;;;;;;;7.85;1.30;;;1.70;70.30;;;;;;4973544;28;20031;-76
2021/04/07 04:27:26;;;;;;;7.15;1.10;;;1.70;70.20;;;;;;4972789;28;20039;-76
2021/04/07 04:29:52;;;;;;;5.80;1.10;;;1.70;68.90;;;;;;4979454;28;20041;-75
2021/04/07 04:32:19;;;;;;;6.85;1.17;;;1.70;69.70;;;;;;4976266;28;20034;-76
2021/04/07 04:34:45;;;;;;;5.55;1.27;;;1.70;69.00;;;;;;4973654;28;20038;-75
2021/04/07 04:37:11;;;;;;;3.17;1.17;;;1.70;69.70;;;;;;4973578;28;20460;-76
2021/04/07 04:39:37;;;;;;;4.45;1.38;;;1.70;68.60;;;;;;4981859;28;20049;-75
2021/04/07 04:42:04;;;;;;;6.30;1.45;;;1.70;68.90;;;;;;4973133;28;20042;-75
2021/04/07 04:44:30;;;;;;;5.30;1.45;;;1.70;68.60;;;;;;4987210;28;20053;-75
2021/04/07 04:46:57;;;;;;;3.00;0.88;;;1.70;68.20;;;;;;4971268;28;20487;-76
2021/04/07 04:49:23;;;;;;;5.03;1.17;;;1.70;68.20;;;;;;4973856;28;20031;-76
2021/04/07 04:51:49;;;;;;;4.60;1.83;;;1.70;68.10;;;;;;4983273;28;20058;-76
2021/04/07 04:54:17;;;;;;;4.35;1.55;;;1.70;68.20;;;;;;4978967;28;20033;-76
2021/04/07 04:56:43;;;;;;;3.70;0.90;;;1.70;68.50;;;;;;4972596;28;20404;-76
2021/04/07 04:59:09;;;;;;;3.42;1.13;;;1.70;68.80;;;;;;4973179;28;20046;-77
2021/04/07 05:01:36;;;;;;;6.95;1.15;;;1.70;68.40;;;;;;4973408;28;20034;-77
2021/04/07 05:04:05;;;;;;;5.40;1.42;;;1.70;68.20;;;;;;4973562;28;20460;-77
2021/04/07 05:06:38;;;;;;;4.78;1.00;;;1.70;67.90;;;;;;4973328;28;20054;-76
2021/04/07 05:09:05;;;;;;;5.15;1.75;;;1.70;68.10;;;;;;4972675;28;20502;-76
2021/04/07 05:11:32;;;;;;;5.75;1.40;;;1.70;68.80;;;;;;4972025;28;20042;-76
2021/04/07 05:13:59;;;;;;;5.38;1.60;;;1.70;67.40;;;;;;4973286;28;20030;-75
2021/04/07 05:16:26;;;;;;;3.63;1.27;;;1.70;67.50;;;;;;4972977;28;20388;-77
2021/04/07 05:18:52;;;;;;;4.93;1.23;;;1.70;67.50;;;;;;4973333;28;20496;-76
2021/04/07 05:21:18;;;;;;;8.70;1.85;;;1.70;67.30;;;;;;4972477;28;20058;-76
2021/04/07 05:23:45;;;;;;;7.53;1.48;;;1.70;67.60;;;;;;4972996;28;20035;-76
2021/04/07 05:26:11;;;;;;;5.88;1.33;;;1.70;66.90;;;;;;4972896;28;20043;-76
2021/04/07 05:28:42;;;;;;;10.13;3.67;;;1.70;67.20;;;;;;4973280;28;20031;-76
2021/04/07 05:31:15;;;;;;;4.63;1.60;;;1.80;67.10;;;;;;4972252;28;20039;-76
2021/04/07 05:33:42;;;;;;;6.57;1.80;;;1.80;67.00;;;;;;4980728;28;20038;-77
2021/04/07 05:36:11;;;;;;;7.53;1.70;;;1.90;67.00;;;;;;4975603;28;20062;-77
2021/04/07 05:38:38;;;;;;;6.22;2.15;;;1.90;66.80;;;;;;4986598;28;20030;-77
2021/04/07 05:41:05;;;;;;;4.20;1.38;;;2.00;65.90;;;;;;4980102;28;20035;-77
2021/04/07 05:43:33;;;;;;;6.72;1.63;;;2.00;65.70;;;;;;4973094;28;20027;-76
2021/04/07 05:46:00;;;;;;;6.72;1.48;;;1.90;65.30;;;;;;4988423;28;20392;-82
2021/04/07 05:48:27;;;;;;;3.97;1.63;;;1.90;65.30;;;;;;4974686;28;20238;-80
2021/04/07 05:50:54;;;;;;;6.57;1.48;;;1.90;66.30;;;;;;4986958;28;20049;-79
2021/04/07 05:53:21;;;;;;;3.58;1.40;;;2.00;66.30;;;;;;4972395;28;20463;-80
2021/04/07 05:55:52;;;;;;;10.07;1.55;;;1.90;65.80;;;;;;4976139;28;20030;-81
2021/04/07 05:58:19;;;;;;;2.70;1.05;;;1.90;65.90;;;;;;4973900;28;20384;-81
2021/04/07 06:00:46;;;;;;;6.65;0.95;;;2.00;64.90;;;;;;4981625;28;20054;-80
2021/04/07 06:03:13;;;;;;;6.20;2.03;;;2.10;65.60;;;;;;4975507;28;20038;-80
2021/04/07 06:05:41;;;;;;;5.50;2.30;;;2.10;65.60;;;;;;4980841;28;20042;-80
2021/04/07 06:08:08;;;;;;;8.73;2.17;;;2.00;65.60;;;;;;4975198;28;20397;-79
2021/04/07 06:10:37;;;;;;;6.65;1.98;;;2.00;66.00;;;;;;4981821;28;20038;-82
2021/04/07 06:13:04;;;;;;;4.57;1.30;;;2.00;65.10;;;;;;4978029;28;20027;-82
2021/04/07 06:15:31;;;;;;;7.00;2.03;;;2.00;65.60;;;;;;4996800;28;20038;-82
2021/04/07 06:18:03;;;;;;;9.10;3.10;;;2.00;65.30;;;;;;4999619;28;20495;-81
2021/04/07 06:20:40;;;;;;;13.75;3.97;;;2.00;65.80;;;;;;4971467;28;20423;-81
2021/04/07 06:23:07;;;;;;;20.75;7.90;;;2.10;66.00;;;;;;4980757;28;20476;-79
2021/04/07 06:25:34;;;;;;;6.50;2.20;;;2.10;66.00;;;;;;4980623;28;20042;-81
2021/04/07 06:28:03;;;;;;;8.80;2.95;;;2.10;66.00;;;;;;4983694;28;20046;-80
2021/04/07 06:30:43;;;;;;;8.45;2.72;;;2.10;65.60;;;;;;4985135;28;20034;-81
2021/04/07 06:33:19;;;;;;;5.90;2.90;;;2.20;66.10;;;;;;4990327;28;20053;-83
2021/04/07 06:35:50;;;;;;;8.80;3.53;;;2.30;65.50;;;;;;4985411;28;20034;-83
2021/04/07 06:38:18;;;;;;;4.80;1.88;;;2.40;66.10;;;;;;4976079;28;20034;-76
2021/04/07 06:40:45;;;;;;;6.43;2.20;;;2.30;65.40;;;;;;4976376;28;20039;-84
2021/04/07 06:43:14;;;;;;;6.22;2.20;;;2.40;65.90;;;;;;4975851;28;20034;-81
2021/04/07 06:45:40;;;;;;;5.30;1.85;;;2.40;65.70;;;;;;4976707;28;20042;-82
2021/04/07 06:48:07;;;;;;;5.13;2.03;;;2.30;65.40;;;;;;4976676;28;20043;-78
2021/04/07 06:50:35;;;;;;;5.97;1.88;;;2.20;65.60;;;;;;4977204;28;20476;-82
2021/04/07 06:53:04;;;;;;;5.20;1.70;;;2.30;66.00;;;;;;4981741;28;20030;-82
2021/04/07 06:55:31;;;;;;;4.15;1.77;;;2.40;66.10;;;;;;4975144;28;20388;-84
2021/04/07 06:57:58;;;;;;;4.10;1.40;;;2.40;65.80;;;;;;4958064;28;20054;-84
2021/04/07 07:00:26;;;;;;;3.50;1.60;;;2.40;65.70;;;;;;4975413;28;20045;-81
2021/04/07 07:03:04;;;;;;;4.03;1.83;;;2.50;65.60;;;;;;4959102;28;20506;-82
2021/04/07 07:05:33;;;;;;;4.95;1.45;;;2.50;65.60;;;;;;4977504;28;20045;-80
2021/04/07 07:08:04;;;;;;;4.88;2.60;;;2.50;66.00;;;;;;4988761;28;20027;-84
2021/04/07 07:10:38;;;;;;;6.03;2.00;;;2.60;65.90;;;;;;4975497;28;20030;-86
2021/04/07 07:13:07;;;;;;;5.82;1.80;;;2.70;65.60;;;;;;4979608;28;20039;-84
2021/04/07 07:15:34;;;;;;;5.32;1.73;;;2.90;65.50;;;;;;4981928;28;20046;-86
2021/04/07 07:18:01;;;;;;;5.20;2.20;;;2.90;64.60;;;;;;4975642;28;20464;-85
2021/04/07 07:20:29;;;;;;;3.97;2.00;;;2.90;64.90;;;;;;4974930;28;20053;-83
2021/04/07 07:22:56;;;;;;;7.13;1.88;;;2.80;64.70;;;;;;4975852;28;20035;-84
2021/04/07 07:25:24;;;;;;;6.20;1.85;;;2.90;65.00;;;;;;4975500;28;20039;-84
2021/04/07 07:27:57;;;;;;;3.78;1.60;;;2.80;65.60;;;;;;4976569;28;20034;-84
2021/04/07 07:30:23;;;;;;;5.43;2.22;;;2.90;65.30;;;;;;4975712;28;20037;-85
2021/04/07 07:32:50;;;;;;;5.05;2.58;;;2.90;65.40;;;;;;4979905;28;20456;-84
2021/04/07 07:35:17;;;;;;;7.85;2.45;;;2.90;65.10;;;;;;4995135;28;20027;-79
2021/04/07 07:37:44;;;;;;;7.65;2.90;;;2.90;64.60;;;;;;4996917;28;20021;-85
2021/04/07 07:40:17;;;;;;;4.55;1.83;;;2.90;65.50;;;;;;4997230;28;20022;-81
2021/04/07 07:42:44;;;;;;;9.25;2.03;;;2.90;64.70;;;;;;5010233;28;20023;-87
2021/04/07 07:45:12;;;;;;;4.95;1.98;;;2.90;65.00;;;;;;4980806;28;20054;-80
2021/04/07 07:47:44;;;;;;;4.53;1.80;;;2.90;65.40;;;;;;4982944;28;20030;-87
2021/04/07 07:50:12;;;;;;;6.00;2.53;;;3.10;65.10;;;;;;4976744;28;20380;-87
2021/04/07 07:52:42;;;;;;;8.07;2.80;;;3.10;64.80;;;;;;4978454;28;20054;-86
2021/04/07 07:55:17;;;;;;;6.57;2.28;;;3.00;64.80;;;;;;4981007;28;20045;-82
2021/04/07 07:57:57;;;;;;;10.00;2.83;;;3.00;65.10;;;;;;4983896;28;20030;-86
2021/04/07 08:00:24;;;;;;;10.55;4.05;;;3.00;65.00;;;;;;4984448;28;20049;-85
2021/04/07 08:02:51;;;;;;;10.00;3.40;;;3.00;65.40;;;;;;4988157;28;20380;-87
2021/04/07 08:05:19;;;;;;;4.63;2.85;;;3.10;65.50;;;;;;4966052;28;20057;-85
2021/04/07 08:07:46;;;;;;;5.40;1.98;;;3.20;65.80;;;;;;4982731;28;20027;-87
2021/04/07 08:10:13;;;;;;;6.45;2.42;;;3.20;64.10;;;;;;4977788;28;20384;-86
2021/04/07 08:12:41;;;;;;;6.88;2.08;;;3.30;64.30;;;;;;4978076;28;20031;-85
2021/04/07 08:15:09;;;;;;;9.10;2.17;;;3.40;64.50;;;;;;4986934;28;20038;-84
2021/04/07 08:17:36;;;;;;;4.95;2.15;;;3.60;63.90;;;;;;4977915;28;20035;-88
2021/04/07 08:20:05;;;;;;;4.88;2.25;;;3.80;63.40;;;;;;4986663;28;20452;-86
2021/04/07 08:22:34;;;;;;;4.95;1.75;;;4.00;62.50;;;;;;4980348;28;20404;-85
2021/04/07 08:25:05;;;;;;;6.40;2.22;;;4.10;62.30;;;;;;4976192;28;20070;-85
2021/04/07 08:27:40;;;;;;;8.43;2.30;;;3.90;63.00;;;;;;4958004;28;20031;-86
2021/04/07 08:30:07;;;;;;;7.53;2.55;;;4.10;62.80;;;;;;4974569;28;20034;-83
2021/04/07 08:32:33;;;;;;;5.57;2.22;;;4.00;62.30;;;;;;4973974;28;20027;-84
2021/04/07 08:35:00;;;;;;;6.88;2.38;;;3.90;62.60;;;;;;4974060;28;20050;-86
2021/04/07 08:37:33;;;;;;;6.70;2.30;;;3.90;62.70;;;;;;4959831;28;20384;-82
2021/04/07 08:40:14;;;;;;;5.38;2.10;;;4.20;62.70;;;;;;4982307;28;20026;-87
2021/04/07 08:42:41;;;;;;;3.63;1.85;;;4.20;61.80;;;;;;5005038;28;20416;-89
2021/04/07 08:45:12;;;;;;;5.40;1.70;;;4.10;61.60;;;;;;4980876;28;20027;-89
2021/04/07 08:48:02;;;;;;;5.47;1.77;;;4.20;61.50;;;;;;4958217;28;20038;-89
2021/04/07 08:50:31;;;;;;;6.40;2.05;;;4.30;61.70;;;;;;4975966;28;20056;-89
2021/04/07 08:52:57;;;;;;;6.05;2.22;;;4.50;61.70;;;;;;4983049;28;20041;-89
2021/04/07 08:55:27;;;;;;;6.20;2.75;;;4.80;60.60;;;;;;4974397;28;20468;-89
2021/04/07 08:58:05;;;;;;;7.30;2.50;;;4.50;61.40;;;;;;4974237;28;20058;-88
2021/04/07 09:00:34;;;;;;;6.53;3.20;;;4.70;60.90;;;;;;4964405;28;20035;-90
2021/04/07 09:03:23;;;;;;;7.60;3.00;;;4.70;61.10;;;;;;4984689;28;20034;-88
2021/04/07 09:05:49;;;;;;;8.27;2.58;;;5.00;60.70;;;;;;4980022;28;20034;-88
2021/04/07 09:08:18;;;;;;;6.93;2.17;;;5.10;60.30;;;;;;4988949;28;20041;-88
2021/04/07 09:10:46;;;;;;;7.55;2.28;;;5.00;59.70;;;;;;4990192;28;20042;-88
2021/04/07 09:13:16;;;;;;;5.75;2.53;;;4.80;59.80;;;;;;4974644;28;20487;-86
2021/04/07 09:16:06;;;;;;;8.57;2.83;;;4.80;60.00;;;;;;4974701;28;20042;-89
2021/04/07 09:18:45;;;;;;;7.03;2.03;;;4.70;60.00;;;;;;4973812;28;20031;-89
2021/04/07 09:21:17;;;;;;;8.60;2.65;;;4.70;60.10;;;;;;4990071;28;20495;-88
2021/04/07 09:23:55;;;;;;;6.80;2.05;;;4.60;60.40;;;;;;4992791;28;20125;-88
2021/04/07 09:26:26;;;;;;;7.78;3.28;;;4.50;60.30;;;;;;4973726;28;20046;-88
2021/04/07 09:28:55;;;;;;;5.55;2.08;;;4.30;60.80;;;;;;4974197;28;20429;-88
2021/04/07 09:31:27;;;;;;;9.88;2.75;;;4.50;60.70;;;;;;4976699;28;20026;-87
2021/04/07 09:33:56;;;;;;;5.20;2.40;;;4.40;60.60;;;;;;4988925;28;20038;-88
2021/04/07 09:36:28;;;;;;;5.63;1.83;;;4.70;60.30;;;;;;4955841;28;20055;-82
2021/04/07 09:38:56;;;;;;;8.05;2.40;;;5.10;59.50;;;;;;4974002;28;20031;-88
2021/04/07 09:41:26;;;;;;;6.35;2.15;;;5.30;59.00;;;;;;4974075;28;20423;-88
2021/04/07 09:43:53;;;;;;;9.45;4.18;;;5.70;58.20;;;;;;4984670;28;20475;-87
2021/04/07 09:46:20;;;;;;;11.32;4.22;;;5.50;58.30;;;;;;4980270;28;20053;-87
2021/04/07 09:48:52;;;;;;;9.38;2.97;;;5.40;58.10;;;;;;4974087;28;20099;-85
2021/04/07 09:51:23;;;;;;;7.78;4.13;;;5.50;58.10;;;;;;4973582;28;20027;-85
2021/04/07 09:53:50;;;;;;;11.95;3.47;;;5.20;58.10;;;;;;4973781;28;20031;-85
2021/04/07 09:56:17;;;;;;;9.40;3.70;;;5.20;58.80;;;;;;4973135;28;20050;-84
2021/04/07 09:58:50;;;;;;;10.40;3.10;;;5.00;58.90;;;;;;4976534;28;20050;-84
2021/04/07 10:01:17;;;;;;;7.78;2.33;;;5.20;58.90;;;;;;4977087;28;20461;-83
2021/04/07 10:03:52;;;;;;;5.70;1.90;;;5.00;58.60;;;;;;4978364;28;20067;-86
2021/04/07 10:06:25;;;;;;;9.55;2.08;;;5.00;58.50;;;;;;4991574;28;20054;-85
2021/04/07 10:09:08;;;;;;;5.45;1.80;;;5.00;59.30;;;;;;4974460;28;20045;-84
2021/04/07 10:11:42;;;;;;;6.20;2.30;;;5.20;58.40;;;;;;4978537;28;20050;-86
2021/04/07 10:14:09;;;;;;;7.93;1.65;;;5.20;58.10;;;;;;4982378;28;20372;-86
2021/04/07 10:16:38;;;;;;;4.22;1.63;;;5.20;57.60;;;;;;4984968;28;20400;-88
2021/04/07 10:19:08;;;;;;;6.50;2.90;;;5.10;58.00;;;;;;4990211;28;20026;-84
2021/04/07 10:21:36;;;;;;;5.93;2.13;;;5.00;58.60;;;;;;4992381;28;20058;-84
2021/04/07 10:24:05;;;;;;;7.07;2.22;;;4.90;59.80;;;;;;4982959;28;20043;-84
2021/04/07 10:26:32;;;;;;;6.20;1.85;;;4.70;58.90;;;;;;4981439;28;20642;-85
2021/04/07 10:29:03;;;;;;;6.70;2.63;;;4.80;59.10;;;;;;4981476;28;20035;-83
2021/04/07 10:31:30;;;;;;;5.85;2.15;;;4.90;58.70;;;;;;4980858;28;20039;-86
2021/04/07 10:34:08;;;;;;;6.43;2.13;;;5.00;59.10;;;;;;4980926;28;20031;-84
2021/04/07 10:36:40;;;;;;;5.72;2.17;;;5.00;59.40;;;;;;4980849;28;20031;-86
2021/04/07 10:39:17;;;;;;;5.45;2.22;;;4.70;59.90;;;;;;4979555;28;20038;-85
2021/04/07 10:41:52;;;;;;;9.73;2.00;;;4.70;60.40;;;;;;4977718;28;20043;-83
2021/04/07 10:44:29;;;;;;;9.63;3.47;;;4.60;60.50;;;;;;4992628;28;20031;-86
2021/04/07 10:46:56;;;;;;;9.05;2.92;;;4.60;61.80;;;;;;4976933;28;20070;-83
2021/04/07 10:49:24;;;;;;;10.38;2.78;;;4.40;64.60;;;;;;4990255;28;20045;-83
2021/04/07 10:52:05;;;;;;;16.23;6.05;;;4.20;65.50;;;;;;4984054;28;20487;-84
2021/04/07 10:54:33;;;;;;;10.45;3.42;;;4.20;64.20;;;;;;4991780;28;20042;-84
2021/04/07 10:57:04;;;;;;;4.50;2.33;;;4.40;64.20;;;;;;4988271;28;20043;-81
2021/04/07 10:59:32;;;;;;;11.55;4.15;;;4.30;63.60;;;;;;4977183;28;20031;-81
2021/04/07 11:01:59;;;;;;;11.85;4.40;;;4.20;65.00;;;;;;4979081;28;20033;-81
2021/04/07 11:04:33;;;;;;;9.50;4.70;;;4.20;66.30;;;;;;4983263;28;20035;-82
2021/04/07 11:06:59;;;;;;;12.95;4.75;;;4.20;67.60;;;;;;4979851;28;20046;-81
2021/04/07 11:09:29;;;;;;;13.02;4.65;;;4.40;68.30;;;;;;4988472;28;20375;-81
2021/04/07 11:11:58;;;;;;;10.68;2.78;;;4.30;69.60;;;;;;4980988;28;20047;-82
2021/04/07 11:14:25;;;;;;;17.40;6.10;;;4.00;71.40;;;;;;4985486;28;20034;-81
2021/04/07 11:16:59;;;;;;;8.60;4.25;;;4.00;74.10;;;;;;4976156;28;20487;-82
2021/04/07 11:19:34;;;;;;;15.32;7.70;;;4.00;73.40;;;;;;4974694;28;20043;-84
2021/04/07 11:22:00;;;;;;;16.40;6.50;;;3.90;71.10;;;;;;4988087;28;20062;-82
2021/04/07 11:24:27;;;;;;;4.95;2.80;;;3.90;72.10;;;;;;4977894;28;20034;-83
2021/04/07 11:26:54;;;;;;;6.90;2.90;;;4.00;72.90;;;;;;4975479;28;20039;-84
2021/04/07 11:29:20;;;;;;;8.73;2.83;;;3.90;70.70;;;;;;4975646;28;20560;-83
2021/04/07 11:31:50;;;;;;;7.55;3.35;;;3.70;72.70;;;;;;4974947;28;20042;-84
2021/04/07 11:34:20;;;;;;;11.55;3.38;;;3.60;74.00;;;;;;4988574;28;20034;-82
2021/04/07 11:39:26;;;;;;;4.40;2.33;;;3.30;78.70;;;;;;4975173;28;20038;-82
2021/04/07 11:46:44;;;;;;;8.68;2.80;;;3.50;75.60;;;;;;4974989;28;20416;-81
2021/04/07 11:49:11;;;;;;;11.32;3.03;;;3.60;75.20;;;;;;4986171;28;20034;-80
2021/04/07 11:51:39;;;;;;;13.25;3.55;;;3.70;74.90;;;;;;4975164;28;20034;-82
2021/04/07 11:54:11;;;;;;;8.95;2.83;;;3.70;73.00;;;;;;4974117;28;20038;-81
2021/04/07 11:56:43;;;;;;;5.32;2.72;;;3.70;74.10;;;;;;4974964;28;20038;-81
2021/04/07 11:59:18;;;;;;;10.75;3.33;;;3.80;72.60;;;;;;4975900;28;20369;-82
2021/04/07 12:01:45;;;;;;;8.68;2.78;;;3.70;71.30;;;;;;4975740;28;20038;-83
2021/04/07 12:04:12;;;;;;;7.03;2.50;;;3.80;71.10;;;;;;4975949;28;20035;-81
2021/04/07 12:06:39;;;;;;;7.05;2.60;;;3.80;69.30;;;;;;4975930;28;20055;-81
2021/04/07 12:09:06;;;;;;;7.07;2.85;;;3.80;69.50;;;;;;4976234;28;20038;-83
2021/04/07 12:11:32;;;;;;;5.78;2.05;;;3.90;69.10;;;;;;4975529;28;20063;-82
2021/04/07 12:13:59;;;;;;;10.05;2.70;;;3.90;68.90;;;;;;4973094;28;20046;-82
2021/04/07 12:16:26;;;;;;;5.63;2.00;;;4.00;69.80;;;;;;4975306;28;20038;-82
2021/04/07 12:18:52;;;;;;;5.10;2.25;;;4.00;69.50;;;;;;4975088;28;20031;-82
2021/04/07 12:21:19;;;;;;;6.25;2.70;;;3.90;69.70;;;;;;4973784;28;20053;-82
2021/04/07 12:23:46;;;;;;;6.88;2.75;;;3.90;70.00;;;;;;4975261;28;20492;-85
2021/04/07 12:26:16;;;;;;;5.65;1.42;;;4.10;69.10;;;;;;4976466;28;20043;-83
2021/04/07 12:28:46;;;;;;;5.20;2.55;;;4.40;67.70;;;;;;4975894;28;20404;-83
2021/04/07 12:31:15;;;;;;;4.22;1.83;;;4.50;67.60;;;;;;4976163;28;20491;-84
2021/04/07 12:33:48;;;;;;;4.65;2.17;;;4.50;67.00;;;;;;4975017;28;20476;-83
2021/04/07 12:36:15;;;;;;;5.55;1.80;;;4.70;66.20;;;;;;4973326;28;20471;-85
2021/04/07 12:38:42;;;;;;;4.35;2.25;;;4.50;67.00;;;;;;4975325;28;20026;-81
2021/04/07 12:41:31;;;;;;;4.65;1.77;;;4.50;67.50;;;;;;4975502;28;20035;-82
2021/04/07 12:43:58;;;;;;;6.10;2.35;;;4.40;66.60;;;;;;4989719;28;20030;-82
2021/04/07 12:46:26;;;;;;;7.45;2.85;;;4.30;68.10;;;;;;4975132;28;20038;-86
2021/04/07 12:48:53;;;;;;;7.72;2.40;;;4.30;67.60;;;;;;4987960;28;20042;-82
2021/04/07 12:51:20;;;;;;;3.90;2.35;;;4.30;68.10;;;;;;4982650;28;20026;-82
2021/04/07 12:53:48;;;;;;;14.93;2.80;;;4.20;67.90;;;;;;4985483;28;20468;-82
2021/04/07 12:56:16;;;;;;;6.53;2.20;;;4.10;67.70;;;;;;4975425;28;20054;-83
2021/04/07 12:58:43;;;;;;;8.00;1.90;;;4.10;67.50;;;;;;4984094;28;20027;-80
2021/04/07 13:01:10;;;;;;;10.60;4.18;;;4.10;67.30;;;;;;4980572;28;20031;-85
2021/04/07 13:03:36;;;;;;;5.97;2.80;;;4.00;66.80;;;;;;4972773;28;20043;-86
2021/04/07 13:06:03;;;;;;;6.03;2.90;;;4.00;67.60;;;;;;4988160;28;20030;-81
2021/04/07 13:08:29;;;;;;;4.45;2.22;;;4.00;67.60;;;;;;4974085;28;20031;-80
2021/04/07 13:10:56;;;;;;;11.25;2.38;;;4.10;68.00;;;;;;4974417;28;20034;-82
2021/04/07 13:13:22;;;;;;;6.63;2.13;;;4.00;68.50;;;;;;4973449;28;20039;-82